Time;durP1;ratioP1;P1;durP2;ratioP2;P2;SDS_P1;SDS_P2;PMS_P1;PMS_P2;Temp;Humidity;BMP_temperature;BMP_pressure;BME280_temperature;BME280_humidity;BME280_pressure;Samples;Min_cycle;Max_cycle;Signal;HPM_P1;HPM_P2
2023/03/25 00:00:16;;;;;;;10.82;2.88;;;9.80;85.60;;;;;;5033830;28;20036;-47
2023/03/25 00:02:48;;;;;;;7.78;2.70;;;9.90;85.20;;;;;;5032858;28;20049;-46
2023/03/25 00:05:20;;;;;;;6.18;2.42;;;9.80;84.90;;;;;;5033344;28;20065;-52
2023/03/25 00:07:51;;;;;;;8.57;2.42;;;9.90;84.90;;;;;;5048680;28;20025;-49
2023/03/25 00:10:19;;;;;;;11.68;2.58;;;9.80;84.80;;;;;;5032499;28;20057;-52
2023/03/25 00:12:46;;;;;;;5.95;2.13;;;9.90;84.70;;;;;;5044317;28;20441;-51
2023/03/25 00:15:15;;;;;;;9.90;2.42;;;9.90;84.20;;;;;;5043492;28;20450;-48
2023/03/25 00:17:43;;;;;;;8.95;2.25;;;9.90;84.10;;;;;;5032354;28;20351;-49
2023/03/25 00:20:13;;;;;;;6.65;1.95;;;9.90;84.10;;;;;;5033559;28;20331;-50
2023/03/25 00:22:42;;;;;;;6.90;2.10;;;9.80;83.90;;;;;;5031298;28;20375;-53
2023/03/25 00:25:15;;;;;;;5.95;2.03;;;9.80;83.70;;;;;;5032753;28;20029;-48
2023/03/25 00:27:43;;;;;;;11.15;2.25;;;9.80;83.70;;;;;;5050237;28;20048;-51
2023/03/25 00:30:11;;;;;;;8.88;1.95;;;9.80;83.70;;;;;;5051825;28;20430;-46
2023/03/25 00:32:38;;;;;;;12.98;2.60;;;9.80;83.70;;;;;;5037844;28;20325;-48
2023/03/25 00:35:07;;;;;;;7.80;2.15;;;9.80;83.50;;;;;;5033035;28;20037;-52
2023/03/25 00:37:34;;;;;;;7.10;2.25;;;9.80;83.50;;;;;;5031960;28;20043;-51
2023/03/25 00:40:02;;;;;;;7.95;2.65;;;9.80;83.40;;;;;;5032546;28;20025;-50
2023/03/25 00:42:27;;;;;;;6.47;2.15;;;9.90;83.40;;;;;;5033151;28;20422;-50
2023/03/25 00:44:58;;;;;;;9.27;2.42;;;9.90;83.10;;;;;;5032453;28;20107;-51
2023/03/25 00:47:27;;;;;;;8.13;2.33;;;9.80;83.20;;;;;;5032875;28;20033;-48
2023/03/25 00:49:58;;;;;;;7.70;2.87;;;9.80;83.30;;;;;;5032705;28;20061;-50
2023/03/25 00:52:25;;;;;;;8.80;2.28;;;9.70;83.30;;;;;;5031960;28;20084;-46
2023/03/25 00:54:52;;;;;;;13.10;2.00;;;9.70;83.30;;;;;;5031594;28;20112;-53
2023/03/25 00:57:21;;;;;;;9.50;2.25;;;9.70;83.50;;;;;;5032796;28;20065;-45
2023/03/25 00:59:46;;;;;;;9.38;2.90;;;9.70;84.30;;;;;;5041586;28;20037;-43
2023/03/25 01:02:15;;;;;;;12.98;2.60;;;9.70;85.20;;;;;;5052572;28;20033;-47
2023/03/25 01:04:44;;;;;;;6.30;2.67;;;9.60;85.90;;;;;;5046686;28;20103;-48
2023/03/25 01:07:14;;;;;;;14.17;2.70;;;9.50;86.40;;;;;;5051231;28;20051;-45
2023/03/25 01:09:45;;;;;;;9.73;3.22;;;9.50;86.40;;;;;;5050987;28;20095;-46
2023/03/25 01:12:18;;;;;;;8.65;1.88;;;9.40;86.40;;;;;;5052727;28;20029;-49
2023/03/25 01:14:46;;;;;;;7.35;2.53;;;9.40;86.40;;;;;;5037152;28;20021;-44
2023/03/25 01:17:14;;;;;;;7.97;2.55;;;9.40;86.40;;;;;;5032544;28;20132;-46
2023/03/25 01:19:41;;;;;;;6.82;2.78;;;9.40;86.50;;;;;;5032346;28;20355;-45
2023/03/25 01:22:07;;;;;;;8.38;3.35;;;9.30;86.50;;;;;;5047618;28;20053;-47
2023/03/25 01:24:34;;;;;;;11.40;2.13;;;9.30;86.50;;;;;;5031822;28;20030;-50
2023/03/25 01:27:12;;;;;;;6.97;2.65;;;9.30;86.40;;;;;;5038654;28;20032;-45
2023/03/25 01:29:40;;;;;;;11.35;2.55;;;9.30;86.40;;;;;;5052592;28;20068;-48
2023/03/25 01:32:07;;;;;;;7.88;2.70;;;9.40;86.20;;;;;;5046907;28;20022;-48
2023/03/25 01:34:37;;;;;;;13.20;3.45;;;9.40;86.30;;;;;;5034540;28;20033;-50
2023/03/25 01:37:03;;;;;;;8.07;2.67;;;9.40;86.30;;;;;;5034867;28;20465;-44
2023/03/25 01:39:39;;;;;;;10.18;2.88;;;9.40;86.30;;;;;;5045995;28;20044;-47
2023/03/25 01:42:09;;;;;;;10.40;2.60;;;9.40;86.40;;;;;;5055700;28;20495;-43
2023/03/25 01:44:51;;;;;;;6.05;2.55;;;9.40;86.40;;;;;;5041979;28;20031;-45
2023/03/25 01:47:16;;;;;;;7.15;2.50;;;9.40;86.40;;;;;;5034959;28;20030;-48
2023/03/25 01:49:45;;;;;;;10.45;2.92;;;9.40;86.40;;;;;;5036034;28;20029;-44
2023/03/25 01:52:30;;;;;;;12.18;2.85;;;9.40;86.30;;;;;;5035100;28;20051;-49
2023/03/25 01:54:59;;;;;;;8.40;3.30;;;9.40;86.10;;;;;;5034737;28;20033;-43
2023/03/25 01:57:29;;;;;;;11.77;3.60;;;9.40;86.20;;;;;;5035927;28;20350;-48
2023/03/25 01:59:56;;;;;;;8.43;3.13;;;9.40;86.50;;;;;;5036255;28;20033;-47
2023/03/25 02:02:35;;;;;;;11.57;4.35;;;9.30;86.90;;;;;;5034515;28;20037;-42
2023/03/25 02:05:16;;;;;;;15.00;3.03;;;9.30;87.20;;;;;;5035441;28;20072;-43
2023/03/25 02:07:56;;;;;;;11.07;3.00;;;9.30;87.40;;;;;;5035023;28;20064;-45
2023/03/25 02:10:33;;;;;;;8.15;3.30;;;9.20;87.70;;;;;;5034724;28;20049;-43
2023/03/25 02:13:01;;;;;;;16.52;3.90;;;9.20;87.90;;;;;;5035122;28;20091;-44
2023/03/25 02:15:30;;;;;;;9.60;2.63;;;9.20;87.80;;;;;;5035317;28;20076;-43
2023/03/25 02:18:16;;;;;;;7.80;2.25;;;9.20;87.80;;;;;;5035300;28;20083;-44
2023/03/25 02:20:53;;;;;;;12.00;3.00;;;9.20;87.70;;;;;;5035269;28;20029;-43
2023/03/25 02:23:40;;;;;;;11.70;3.20;;;9.20;87.60;;;;;;5033723;28;20065;-43
2023/03/25 02:26:41;;;;;;;16.00;3.25;;;9.20;87.60;;;;;;5035029;28;20052;-43
2023/03/25 02:29:48;;;;;;;12.20;3.47;;;9.20;88.00;;;;;;5052939;28;20104;-44
2023/03/25 02:33:05;;;;;;;11.15;2.78;;;9.10;88.30;;;;;;5048537;28;20113;-59
2023/03/25 02:35:56;;;;;;;10.10;3.03;;;9.10;89.00;;;;;;5017987;28;20065;-54
2023/03/25 02:38:42;;;;;;;8.40;2.97;;;9.00;89.50;;;;;;5035972;28;20526;-62
2023/03/25 02:41:45;;;;;;;10.70;3.70;;;9.00;90.00;;;;;;5052433;28;20047;-61
2023/03/25 02:44:30;;;;;;;23.85;8.90;;;8.90;90.40;;;;;;5050391;28;20058;-61
2023/03/25 02:47:04;;;;;;;14.50;4.43;;;8.90;90.70;;;;;;5053783;28;20048;-60
2023/03/25 02:49:54;;;;;;;9.18;3.83;;;8.90;91.20;;;;;;5045624;28;20104;-61
2023/03/25 02:52:37;;;;;;;13.10;5.20;;;8.80;91.50;;;;;;5053856;28;20067;-57
2023/03/25 02:55:09;;;;;;;12.45;3.33;;;8.80;91.70;;;;;;5031360;28;20057;-59
2023/03/25 02:57:40;;;;;;;11.52;3.00;;;8.70;91.90;;;;;;5054301;28;20028;-54
2023/03/25 03:00:14;;;;;;;8.77;3.03;;;8.50;92.10;;;;;;5034775;28;20040;-51
2023/03/25 03:03:07;;;;;;;11.43;3.75;;;8.50;92.40;;;;;;5052339;28;20025;-50
2023/03/25 03:05:51;;;;;;;7.90;3.22;;;8.50;92.60;;;;;;5054719;28;20021;-48
2023/03/25 03:08:43;;;;;;;15.00;6.97;;;8.50;92.70;;;;;;5039204;28;20110;-47
2023/03/25 03:11:31;;;;;;;7.97;2.08;;;8.40;92.60;;;;;;5034236;28;20037;-48
2023/03/25 03:14:37;;;;;;;7.57;2.03;;;8.40;92.70;;;;;;5034280;28;20026;-47
2023/03/25 03:17:41;;;;;;;8.90;2.30;;;8.30;92.70;;;;;;5053147;28;20104;-48
2023/03/25 03:20:32;;;;;;;9.15;1.50;;;8.20;92.70;;;;;;5054182;28;20251;-48
2023/03/25 03:23:17;;;;;;;5.50;1.73;;;8.20;92.80;;;;;;5039920;28;20137;-54
2023/03/25 03:26:23;;;;;;;5.20;1.50;;;8.20;92.90;;;;;;5044762;28;20106;-52
2023/03/25 03:29:13;;;;;;;12.98;2.20;;;8.20;93.00;;;;;;5001033;28;20515;-58
2023/03/25 03:31:49;;;;;;;9.70;1.80;;;8.20;93.00;;;;;;5054063;28;20450;-57
2023/03/25 03:34:43;;;;;;;6.13;1.70;;;8.10;93.00;;;;;;5033154;28;20045;-58
2023/03/25 03:37:15;;;;;;;5.65;1.00;;;8.00;92.90;;;;;;5033871;28;20041;-58
2023/03/25 03:39:48;;;;;;;5.10;1.20;;;8.00;92.80;;;;;;5037176;28;20115;-58
2023/03/25 03:42:41;;;;;;;3.95;0.80;;;7.90;92.70;;;;;;5032827;28;20091;-52
2023/03/25 03:45:21;;;;;;;4.28;1.05;;;7.90;92.70;;;;;;5032895;28;20060;-55
2023/03/25 03:47:52;;;;;;;6.68;1.88;;;7.80;92.70;;;;;;5032749;28;20041;-61
2023/03/25 03:50:38;;;;;;;2.50;1.33;;;7.90;92.90;;;;;;5049209;28;20041;-59
2023/03/25 03:53:35;;;;;;;9.35;2.58;;;7.90;93.00;;;;;;5034899;28;20022;-59
2023/03/25 03:56:20;;;;;;;11.80;3.10;;;8.00;93.10;;;;;;5026699;28;20033;-59
2023/03/25 03:58:53;;;;;;;6.82;1.75;;;8.00;93.20;;;;;;5040849;28;20029;-59
2023/03/25 04:01:33;;;;;;;7.90;1.98;;;7.90;93.00;;;;;;5050884;28;20033;-55
2023/03/25 04:04:04;;;;;;;8.60;2.10;;;7.80;92.80;;;;;;5053098;28;20441;-55
2023/03/25 04:07:03;;;;;;;8.88;2.67;;;7.90;93.00;;;;;;5049108;28;20030;-55
2023/03/25 04:10:01;;;;;;;13.27;3.60;;;7.90;93.10;;;;;;5037344;28;20355;-49
2023/03/25 04:12:31;;;;;;;13.63;3.80;;;7.90;93.40;;;;;;5036491;28;20112;-53
2023/03/25 04:15:03;;;;;;;16.23;4.00;;;8.00;93.40;;;;;;5035642;28;20057;-52
2023/03/25 04:17:33;;;;;;;9.10;3.83;;;8.10;93.60;;;;;;5047644;28;20048;-48
2023/03/25 04:20:05;;;;;;;13.80;3.65;;;8.20;93.70;;;;;;5032337;28;20067;-47
2023/03/25 04:22:32;;;;;;;15.98;4.55;;;8.20;93.60;;;;;;5039255;28;20033;-50
2023/03/25 04:24:59;;;;;;;11.85;3.70;;;8.20;93.70;;;;;;5032674;28;20048;-47
2023/03/25 04:27:28;;;;;;;17.25;4.93;;;8.20;93.70;;;;;;5032930;28;20033;-50
2023/03/25 04:29:56;;;;;;;13.37;3.93;;;8.20;93.70;;;;;;5033435;28;20336;-52
2023/03/25 04:32:26;;;;;;;15.25;4.75;;;8.20;93.70;;;;;;5032865;28;20034;-50
2023/03/25 04:34:57;;;;;;;15.88;4.88;;;8.20;93.70;;;;;;5032592;28;20105;-49
2023/03/25 04:37:24;;;;;;;;;;;8.20;93.70;;;;;;5033646;28;20347;-51
2023/03/25 04:39:52;;;;;;;14.98;5.00;;;8.20;93.70;;;;;;5033079;28;19917;-50
2023/03/25 04:42:24;;;;;;;19.77;5.82;;;8.20;93.70;;;;;;5031457;28;20029;-49
2023/03/25 04:44:52;;;;;;;19.25;5.10;;;8.20;93.70;;;;;;5032697;28;20049;-45
2023/03/25 04:47:22;;;;;;;24.60;6.78;;;8.20;93.70;;;;;;5032700;28;20044;-50
2023/03/25 04:49:48;;;;;;;17.38;5.57;;;8.20;93.60;;;;;;5038111;28;20037;-51
2023/03/25 04:52:18;;;;;;;28.38;5.90;;;8.30;93.70;;;;;;5052509;28;20017;-52
2023/03/25 04:54:46;;;;;;;20.83;5.95;;;8.30;93.70;;;;;;5047706;28;20068;-53
2023/03/25 04:57:14;;;;;;;16.02;5.63;;;8.20;93.60;;;;;;5031959;28;20026;-52
2023/03/25 04:59:44;;;;;;;21.35;7.30;;;8.20;93.60;;;;;;5032319;28;20034;-49
2023/03/25 05:02:12;;;;;;;25.10;6.82;;;8.30;93.70;;;;;;5040792;28;20027;-51
2023/03/25 05:04:46;;;;;;;22.73;6.03;;;8.30;93.70;;;;;;5052173;28;20041;-50
2023/03/25 05:07:28;;;;;;;17.20;6.32;;;8.30;93.60;;;;;;5046904;28;20025;-47
2023/03/25 05:09:56;;;;;;;21.35;5.80;;;8.20;93.60;;;;;;5038550;28;20041;-46
2023/03/25 05:12:24;;;;;;;21.30;6.20;;;8.20;93.60;;;;;;5037086;28;20116;-48
2023/03/25 05:14:51;;;;;;;15.13;5.68;;;8.20;93.60;;;;;;5037558;28;20028;-52
2023/03/25 05:17:18;;;;;;;15.70;6.22;;;8.20;93.60;;;;;;5040520;28;20106;-52
2023/03/25 05:19:44;;;;;;;17.40;6.35;;;8.20;93.50;;;;;;5045232;28;20036;-52
2023/03/25 05:22:11;;;;;;;17.73;5.03;;;8.20;93.50;;;;;;5037703;28;20128;-54
2023/03/25 05:24:43;;;;;;;19.63;6.20;;;8.20;93.50;;;;;;5045015;28;20037;-52
2023/03/25 05:27:11;;;;;;;19.40;6.13;;;8.20;93.40;;;;;;5036607;28;20357;-53
2023/03/25 05:29:38;;;;;;;17.48;5.13;;;8.20;93.40;;;;;;5035551;28;20026;-58
2023/03/25 05:32:06;;;;;;;18.42;5.28;;;8.20;93.40;;;;;;5036338;28;20025;-52
2023/03/25 05:34:33;;;;;;;16.08;4.70;;;8.20;93.40;;;;;;5035989;28;20439;-53
2023/03/25 05:37:01;;;;;;;15.05;5.32;;;8.10;93.30;;;;;;5036449;28;20033;-55
2023/03/25 05:39:28;;;;;;;17.10;4.90;;;8.20;93.30;;;;;;5036250;28;20033;-57
2023/03/25 05:42:01;;;;;;;24.30;5.22;;;8.10;93.30;;;;;;5035299;28;20029;-49
2023/03/25 05:44:30;;;;;;;13.68;4.63;;;8.20;93.30;;;;;;5036079;28;20413;-54
2023/03/25 05:47:01;;;;;;;26.25;5.43;;;8.20;93.40;;;;;;5036808;28;20052;-55
2023/03/25 05:49:29;;;;;;;21.63;6.15;;;8.20;93.30;;;;;;5055879;28;20017;-49
2023/03/25 05:51:56;;;;;;;11.00;3.90;;;8.10;93.30;;;;;;5053834;28;20021;-50
2023/03/25 05:54:27;;;;;;;15.98;5.20;;;8.10;93.30;;;;;;5052876;28;20100;-49
2023/03/25 05:56:52;;;;;;;19.77;4.93;;;8.10;93.30;;;;;;5055083;28;20029;-51
2023/03/25 05:59:20;;;;;;;17.42;4.95;;;8.10;93.30;;;;;;5051375;28;20025;-53
2023/03/25 06:01:48;;;;;;;13.88;5.43;;;8.10;93.10;;;;;;5055314;28;20040;-51
2023/03/25 06:04:20;;;;;;;16.60;4.70;;;8.10;93.20;;;;;;5055383;28;20040;-48
2023/03/25 06:06:48;;;;;;;10.50;3.60;;;8.10;93.10;;;;;;5051897;28;20064;-47
2023/03/25 06:09:14;;;;;;;13.98;5.05;;;8.10;93.20;;;;;;5054282;28;20029;-50
2023/03/25 06:11:45;;;;;;;11.40;3.05;;;8.10;93.00;;;;;;5021574;28;20035;-51
2023/03/25 06:14:15;;;;;;;8.52;3.10;;;8.00;93.00;;;;;;5053597;28;20053;-46
2023/03/25 06:16:42;;;;;;;9.90;2.70;;;8.00;93.00;;;;;;5053826;28;20777;-49
2023/03/25 06:19:09;;;;;;;10.60;3.28;;;8.00;92.90;;;;;;5052358;28;20127;-53
2023/03/25 06:21:38;;;;;;;10.75;2.55;;;8.00;93.00;;;;;;5053799;28;20049;-55
2023/03/25 06:24:08;;;;;;;8.43;3.13;;;8.00;93.00;;;;;;5050228;28;20037;-55
2023/03/25 06:26:38;;;;;;;7.13;3.20;;;8.00;93.10;;;;;;5054379;28;20107;-53
2023/03/25 06:29:05;;;;;;;13.40;3.03;;;8.10;93.00;;;;;;5051538;28;20577;-56
2023/03/25 06:31:32;;;;;;;9.95;3.10;;;8.10;93.10;;;;;;5045755;28;20030;-51
2023/03/25 06:34:04;;;;;;;13.23;2.97;;;8.10;93.00;;;;;;5055152;28;20031;-48
2023/03/25 06:36:35;;;;;;;13.23;3.60;;;8.20;93.00;;;;;;5055307;28;20037;-47
2023/03/25 06:39:00;;;;;;;;;;;8.30;93.00;;;;;;5053756;28;20385;-53
2023/03/25 06:41:27;;;;;;;13.80;4.00;;;8.30;93.10;;;;;;5054594;28;19963;-53
2023/03/25 06:43:54;;;;;;;17.17;4.40;;;8.40;93.00;;;;;;5054297;28;20025;-47
2023/03/25 06:46:22;;;;;;;14.38;4.20;;;8.40;92.90;;;;;;5054895;28;20025;-48
2023/03/25 06:48:50;;;;;;;13.93;4.38;;;8.50;92.90;;;;;;5047928;28;20403;-47
2023/03/25 06:51:26;;;;;;;15.23;3.75;;;8.50;92.90;;;;;;5041013;28;20079;-49
2023/03/25 06:53:55;;;;;;;10.60;3.65;;;8.60;92.70;;;;;;5044291;28;20040;-51
2023/03/25 06:56:22;;;;;;;14.65;4.25;;;8.80;92.50;;;;;;5041038;28;20037;-46
2023/03/25 06:58:48;;;;;;;7.82;3.75;;;8.80;92.30;;;;;;5051185;28;20470;-45
2023/03/25 07:01:15;;;;;;;17.30;3.95;;;8.80;92.00;;;;;;5053873;28;20040;-48
2023/03/25 07:03:51;;;;;;;13.57;3.80;;;8.80;91.90;;;;;;5050833;28;20447;-45
2023/03/25 07:06:22;;;;;;;9.63;3.70;;;8.90;91.90;;;;;;5052824;28;20040;-46
2023/03/25 07:08:49;;;;;;;13.93;3.30;;;8.90;91.70;;;;;;5053246;28;20064;-47
2023/03/25 07:11:22;;;;;;;8.68;2.97;;;8.90;91.70;;;;;;5047529;28;20128;-46
2023/03/25 07:13:52;;;;;;;16.75;3.70;;;9.00;91.50;;;;;;5042355;28;20345;-46
2023/03/25 07:16:20;;;;;;;;;;;9.00;91.50;;;;;;5051923;28;20025;-45
2023/03/25 07:18:46;;;;;;;15.32;4.00;;;9.20;91.50;;;;;;5051648;28;20257;-46
2023/03/25 07:21:13;;;;;;;12.57;3.60;;;9.20;91.40;;;;;;5042277;28;20126;-46
2023/03/25 07:23:42;;;;;;;11.80;4.18;;;9.20;91.30;;;;;;5053842;28;20028;-47
2023/03/25 07:26:12;;;;;;;14.83;4.00;;;9.30;91.20;;;;;;5053641;28;20036;-46
2023/03/25 07:28:40;;;;;;;17.65;3.95;;;9.30;91.10;;;;;;5038382;28;20520;-49
2023/03/25 07:31:22;;;;;;;18.65;3.78;;;9.30;90.90;;;;;;5051829;28;20036;-46
2023/03/25 07:33:51;;;;;;;12.70;3.35;;;9.30;91.00;;;;;;5049940;28;20866;-48
2023/03/25 07:36:20;;;;;;;18.27;4.82;;;9.30;91.10;;;;;;5049826;28;20033;-49
2023/03/25 07:38:48;;;;;;;15.88;4.55;;;9.40;91.10;;;;;;5053780;28;20090;-49
2023/03/25 07:41:15;;;;;;;14.27;3.58;;;9.40;90.60;;;;;;5051795;28;20032;-49
2023/03/25 07:43:44;;;;;;;15.95;4.07;;;9.40;90.60;;;;;;5049092;28;20029;-45
2023/03/25 07:46:13;;;;;;;15.55;4.13;;;9.60;90.80;;;;;;5050980;28;20068;-45
2023/03/25 07:48:41;;;;;;;17.38;4.78;;;9.60;89.90;;;;;;5050955;28;20021;-49
2023/03/25 07:51:09;;;;;;;18.17;4.18;;;9.70;89.70;;;;;;5049397;28;20032;-48
2023/03/25 07:53:38;;;;;;;14.18;4.13;;;9.70;89.50;;;;;;5052584;28;20336;-46
2023/03/25 07:56:07;;;;;;;12.85;3.50;;;9.70;89.30;;;;;;5044967;28;20125;-45
2023/03/25 07:58:34;;;;;;;20.67;4.82;;;9.70;89.10;;;;;;5036590;28;20108;-44
2023/03/25 08:00:59;;;;;;;14.27;3.53;;;9.70;89.00;;;;;;5042798;28;20044;-46
2023/03/25 08:03:28;;;;;;;18.05;5.57;;;9.80;89.50;;;;;;5043233;28;20017;-47
2023/03/25 08:05:55;;;;;;;18.80;4.85;;;9.80;89.30;;;;;;5046614;28;20029;-46
2023/03/25 08:08:24;;;;;;;15.48;3.97;;;9.80;89.10;;;;;;5048841;28;20068;-45
2023/03/25 08:10:52;;;;;;;21.58;3.80;;;9.90;89.70;;;;;;5045858;28;20597;-50
2023/03/25 08:13:17;;;;;;;14.30;3.88;;;9.90;89.00;;;;;;5034648;28;20124;-46
2023/03/25 08:15:44;;;;;;;18.13;3.92;;;9.90;88.80;;;;;;5032989;28;20121;-44
2023/03/25 08:18:11;;;;;;;12.32;4.25;;;9.90;88.40;;;;;;5033204;28;20419;-63
2023/03/25 08:20:37;;;;;;;12.30;3.08;;;9.80;88.40;;;;;;5033171;28;20033;-59
2023/03/25 08:23:11;;;;;;;13.10;4.60;;;9.60;88.70;;;;;;5045804;28;20059;-50
2023/03/25 08:25:39;;;;;;;8.45;2.75;;;9.40;88.80;;;;;;5052408;28;20024;-48
2023/03/25 08:28:06;;;;;;;9.13;2.40;;;9.20;89.20;;;;;;5053093;28;20047;-51
2023/03/25 08:30:37;;;;;;;7.55;2.83;;;9.10;89.30;;;;;;5048589;28;20454;-48
2023/03/25 08:33:32;;;;;;;9.48;2.80;;;9.00;89.60;;;;;;5052502;28;20031;-47
2023/03/25 08:36:12;;;;;;;9.10;2.33;;;9.00;89.30;;;;;;5051987;28;20033;-47
2023/03/25 08:38:43;;;;;;;9.65;2.63;;;9.00;89.20;;;;;;5032681;28;20033;-47
2023/03/25 08:41:10;;;;;;;12.73;2.80;;;8.90;89.40;;;;;;5045688;28;20036;-46
2023/03/25 08:43:35;;;;;;;10.00;3.05;;;9.00;89.40;;;;;;5050921;28;20477;-45
2023/03/25 08:46:04;;;;;;;11.80;3.30;;;9.20;89.80;;;;;;5034026;28;20026;-45
2023/03/25 08:48:32;;;;;;;16.13;2.85;;;9.60;90.00;;;;;;5032076;28;20112;-46
2023/03/25 08:51:00;;;;;;;9.63;2.55;;;10.00;89.70;;;;;;5037186;28;20559;-45
2023/03/25 08:53:27;;;;;;;12.00;3.55;;;10.30;89.00;;;;;;5052610;28;20366;-45
2023/03/25 08:55:59;;;;;;;8.50;2.20;;;10.50;88.00;;;;;;5041570;28;20041;-54
2023/03/25 08:58:26;;;;;;;13.38;3.08;;;11.00;88.00;;;;;;5032709;28;20030;-46
2023/03/25 09:00:54;;;;;;;14.52;3.63;;;11.40;87.60;;;;;;5037112;28;20063;-48
2023/03/25 09:03:26;;;;;;;13.40;4.93;;;11.80;87.00;;;;;;5051481;28;20037;-46
2023/03/25 09:05:53;;;;;;;9.32;2.90;;;11.50;85.00;;;;;;5052092;28;20025;-45
2023/03/25 09:08:23;;;;;;;15.10;3.25;;;11.40;85.30;;;;;;5051420;28;20025;-45
2023/03/25 09:10:50;;;;;;;16.52;3.75;;;11.10;85.30;;;;;;5031472;28;20108;-48
2023/03/25 09:13:17;;;;;;;18.95;3.97;;;10.80;85.80;;;;;;5031352;28;20038;-46
2023/03/25 09:15:48;;;;;;;18.38;3.60;;;10.40;85.30;;;;;;5032153;28;20030;-45
2023/03/25 09:18:14;;;;;;;5.70;1.48;;;10.10;86.60;;;;;;5032648;28;20041;-45
2023/03/25 09:20:46;;;;;;;10.30;2.38;;;9.70;86.40;;;;;;5031422;28;20049;-45
2023/03/25 09:23:16;;;;;;;5.97;1.95;;;9.60;86.90;;;;;;5032025;28;20111;-46
2023/03/25 09:25:43;;;;;;;8.63;2.00;;;9.60;87.00;;;;;;5031151;28;20407;-44
2023/03/25 09:28:10;;;;;;;4.97;1.67;;;9.60;87.80;;;;;;5014925;28;20044;-44
2023/03/25 09:30:35;;;;;;;9.52;2.40;;;9.70;87.60;;;;;;5032211;28;20079;-44
2023/03/25 09:33:03;;;;;;;8.73;2.60;;;9.70;88.70;;;;;;5032289;28;20025;-43
2023/03/25 09:35:31;;;;;;;13.00;2.90;;;9.90;88.00;;;;;;5031148;28;20057;-44
2023/03/25 09:37:58;;;;;;;7.20;2.65;;;10.10;87.80;;;;;;5032208;28;20032;-45
2023/03/25 09:40:25;;;;;;;8.75;1.83;;;10.40;86.30;;;;;;5031725;28;20061;-43
2023/03/25 09:43:18;;;;;;;5.53;1.50;;;10.50;85.60;;;;;;5032156;28;20033;-45
2023/03/25 09:46:03;;;;;;;7.47;1.60;;;10.60;85.80;;;;;;5050210;28;20462;-46
2023/03/25 09:48:48;;;;;;;4.50;1.52;;;10.50;84.70;;;;;;5049944;28;20037;-44
2023/03/25 09:51:43;;;;;;;8.30;1.70;;;10.60;85.80;;;;;;5038040;28;20128;-44
2023/03/25 09:54:16;;;;;;;8.10;2.22;;;10.90;85.50;;;;;;5041012;28;20079;-44
2023/03/25 09:56:46;;;;;;;10.05;1.75;;;10.90;84.10;;;;;;5039987;28;20098;-44
2023/03/25 09:59:40;;;;;;;8.10;2.25;;;10.90;84.90;;;;;;5046366;28;20044;-45
2023/03/25 10:02:45;;;;;;;8.63;3.08;;;10.90;85.10;;;;;;5052772;28;20059;-48
2023/03/25 10:05:37;;;;;;;10.60;2.78;;;10.70;85.20;;;;;;4973442;28;20038;-55
2023/03/25 10:08:33;;;;;;;5.47;1.75;;;10.50;85.60;;;;;;4973727;28;20034;-58
2023/03/25 10:11:20;;;;;;;10.63;2.75;;;10.40;85.90;;;;;;4968668;28;20102;-61
2023/03/25 10:14:13;;;;;;;8.55;2.47;;;10.20;87.00;;;;;;4969058;28;20341;-59
2023/03/25 10:17:20;;;;;;;10.50;1.95;;;10.20;87.80;;;;;;4972299;28;20046;-58
2023/03/25 10:20:16;;;;;;;9.73;1.90;;;10.00;87.50;;;;;;4953462;28;20050;-54
2023/03/25 10:23:23;;;;;;;9.70;2.10;;;9.90;88.00;;;;;;4967616;28;20043;-59
2023/03/25 10:25:58;;;;;;;9.57;1.98;;;9.90;88.30;;;;;;4943110;28;20146;-52
2023/03/25 10:28:33;;;;;;;10.10;2.22;;;9.70;88.60;;;;;;4945079;29;20915;-52
2023/03/25 10:31:01;;;;;;;9.70;2.05;;;9.70;89.30;;;;;;4939055;29;20433;-48
2023/03/25 10:33:40;;;;;;;12.95;2.65;;;9.80;89.70;;;;;;4958748;28;20045;-53
2023/03/25 10:36:18;;;;;;;11.15;2.83;;;9.90;89.90;;;;;;4957910;28;20031;-53
2023/03/25 10:39:00;;;;;;;9.57;2.90;;;10.00;89.50;;;;;;4977711;28;20045;-46
2023/03/25 10:41:47;;;;;;;17.20;2.80;;;10.10;89.40;;;;;;5035232;28;20029;-46
2023/03/25 10:44:14;;;;;;;15.85;3.30;;;10.30;89.00;;;;;;5034618;28;20043;-46
2023/03/25 10:46:53;;;;;;;13.30;3.13;;;10.50;88.50;;;;;;5034933;28;20053;-45
2023/03/25 10:49:27;;;;;;;11.80;3.35;;;10.70;87.80;;;;;;5033612;28;20028;-48
2023/03/25 10:51:57;;;;;;;11.25;3.67;;;10.80;87.30;;;;;;5023080;28;20048;-51
2023/03/25 10:54:35;;;;;;;11.85;2.50;;;10.90;86.70;;;;;;5037663;28;20029;-45
2023/03/25 10:57:11;;;;;;;9.75;2.25;;;11.00;86.70;;;;;;5033105;28;20033;-44
2023/03/25 11:00:17;;;;;;;10.60;2.80;;;10.90;85.50;;;;;;5033090;28;20108;-48
2023/03/25 11:03:04;;;;;;;11.32;2.80;;;10.50;85.30;;;;;;5033036;28;20053;-58
2023/03/25 11:05:29;;;;;;;10.00;2.58;;;10.30;86.80;;;;;;5033728;28;20028;-57
2023/03/25 11:08:04;;;;;;;15.05;3.13;;;10.10;87.10;;;;;;5034782;28;20414;-59
2023/03/25 11:10:54;;;;;;;10.02;2.33;;;10.10;87.50;;;;;;5032187;28;20040;-58
2023/03/25 11:13:25;;;;;;;10.77;2.35;;;10.10;87.50;;;;;;5034787;28;20060;-58
2023/03/25 11:16:05;;;;;;;11.75;3.13;;;10.00;87.90;;;;;;5040210;28;20051;-52
2023/03/25 11:18:39;;;;;;;5.63;2.10;;;10.30;88.60;;;;;;5047069;28;20117;-51
2023/03/25 11:21:16;;;;;;;10.25;2.30;;;10.70;89.00;;;;;;5037416;28;20061;-60
2023/03/25 11:23:50;;;;;;;6.88;1.90;;;11.00;88.60;;;;;;5032845;28;20059;-58
2023/03/25 11:26:39;;;;;;;5.57;1.10;;;10.80;86.70;;;;;;5032948;28;20041;-61
2023/03/25 11:29:10;;;;;;;5.72;1.05;;;10.30;85.10;;;;;;5033958;28;20045;-57
2023/03/25 11:31:40;;;;;;;6.35;1.30;;;9.90;85.40;;;;;;5038302;28;20049;-56
2023/03/25 11:34:12;;;;;;;6.10;1.38;;;9.60;86.40;;;;;;5034769;28;20044;-56
2023/03/25 11:37:03;;;;;;;6.57;1.80;;;9.30;86.80;;;;;;5048430;28;20048;-52
2023/03/25 11:39:38;;;;;;;5.65;1.42;;;9.20;87.70;;;;;;5034090;28;20478;-56
2023/03/25 11:42:48;;;;;;;5.70;1.77;;;9.00;88.50;;;;;;5032986;28;20127;-52
2023/03/25 11:45:32;;;;;;;4.93;1.60;;;9.10;88.80;;;;;;5031948;28;20125;-53
2023/03/25 11:48:00;;;;;;;6.22;1.80;;;9.30;89.70;;;;;;5036318;28;20421;-47
2023/03/25 11:50:29;;;;;;;9.25;1.85;;;9.90;90.80;;;;;;5048077;28;20031;-47
2023/03/25 11:52:59;;;;;;;8.75;1.77;;;10.00;89.40;;;;;;5046314;28;20033;-47
2023/03/25 11:55:30;;;;;;;9.00;2.17;;;10.40;89.40;;;;;;5047567;28;20029;-45
2023/03/25 11:58:12;;;;;;;5.38;1.42;;;10.60;87.90;;;;;;5038050;28;20357;-46
2023/03/25 12:00:52;;;;;;;6.10;1.85;;;10.70;86.70;;;;;;5035805;28;20128;-47
2023/03/25 12:03:33;;;;;;;13.30;2.40;;;11.00;87.70;;;;;;5046809;28;20069;-45
2023/03/25 12:06:20;;;;;;;5.80;1.92;;;11.20;86.70;;;;;;5041993;28;20056;-46
2023/03/25 12:08:59;;;;;;;10.93;1.80;;;11.00;84.60;;;;;;5037809;28;20033;-46
2023/03/25 12:11:43;;;;;;;14.75;3.05;;;11.00;85.20;;;;;;5044024;28;20048;-49
2023/03/25 12:14:23;;;;;;;11.70;2.45;;;11.00;85.40;;;;;;5033215;28;20112;-46
2023/03/25 12:17:10;;;;;;;8.38;1.48;;;10.90;85.20;;;;;;5036271;28;20098;-46
2023/03/25 12:19:50;;;;;;;7.05;1.50;;;10.90;85.10;;;;;;5038684;28;20029;-47
2023/03/25 12:22:53;;;;;;;5.95;1.45;;;10.50;84.00;;;;;;5040542;28;20045;-50
2023/03/25 12:25:34;;;;;;;10.13;1.98;;;10.40;84.90;;;;;;5054367;28;20034;-47
2023/03/25 12:28:31;;;;;;;7.90;1.77;;;10.30;84.90;;;;;;5041759;28;20072;-47
2023/03/25 12:31:21;;;;;;;8.80;2.08;;;10.40;85.60;;;;;;5036357;28;20454;-46
2023/03/25 12:34:07;;;;;;;12.90;2.65;;;10.90;85.70;;;;;;5037078;28;20036;-46
2023/03/25 12:37:04;;;;;;;7.47;1.85;;;11.20;84.80;;;;;;5037843;28;20037;-46
2023/03/25 12:40:13;;;;;;;11.73;3.22;;;11.30;83.90;;;;;;5044249;28;20400;-47
2023/03/25 12:42:49;;;;;;;12.68;1.75;;;11.50;84.00;;;;;;5043738;28;20155;-48
2023/03/25 12:45:55;;;;;;;5.50;1.58;;;11.80;83.30;;;;;;5035218;28;20075;-47
2023/03/25 12:48:50;;;;;;;12.75;2.38;;;12.10;82.70;;;;;;5034994;28;20018;-46
2023/03/25 12:51:34;;;;;;;5.30;1.80;;;11.90;81.00;;;;;;5034956;28;20037;-46
2023/03/25 12:54:38;;;;;;;5.85;1.52;;;11.70;82.80;;;;;;5041390;28;20032;-47
2023/03/25 12:57:24;;;;;;;6.05;1.20;;;11.30;81.40;;;;;;5040473;28;20040;-48
2023/03/25 13:00:13;;;;;;;7.13;1.52;;;11.20;80.90;;;;;;5034076;28;20086;-48
2023/03/25 13:03:12;;;;;;;4.97;1.15;;;11.00;80.80;;;;;;5044071;28;20156;-46
2023/03/25 13:05:53;;;;;;;4.72;1.25;;;11.00;82.00;;;;;;5030522;28;20187;-47
2023/03/25 13:08:34;;;;;;;9.48;1.73;;;11.00;82.20;;;;;;5037284;28;20069;-46
2023/03/25 13:11:51;;;;;;;9.90;2.33;;;11.00;82.20;;;;;;5032649;28;20025;-50
2023/03/25 13:14:29;;;;;;;8.45;2.60;;;10.60;82.50;;;;;;5010650;28;20042;-50
2023/03/25 13:17:02;;;;;;;5.57;1.65;;;10.10;84.60;;;;;;5037892;28;20060;-50
2023/03/25 13:19:38;;;;;;;4.40;1.55;;;9.90;86.50;;;;;;5039257;28;20260;-47
2023/03/25 13:22:33;;;;;;;8.85;1.65;;;9.80;86.20;;;;;;5031955;28;20041;-46
2023/03/25 13:25:04;;;;;;;8.90;1.88;;;9.90;86.10;;;;;;4968035;28;20181;-45
2023/03/25 13:27:40;;;;;;;7.53;2.22;;;9.90;86.50;;;;;;5028495;28;20038;-46
2023/03/25 13:30:36;;;;;;;10.52;2.40;;;9.90;87.20;;;;;;5024569;28;20026;-49
2023/03/25 13:33:27;;;;;;;11.85;2.15;;;9.60;87.00;;;;;;5058000;28;20056;-62